createdAt,value
2023-12-23T00:02:21.213Z,0.93
2023-12-23T00:04:49.205Z,1.37
2023-12-23T00:07:17.197Z,0.57
2023-12-23T00:09:45.180Z,0.93
2023-12-23T00:12:13.087Z,0.57
2023-12-23T00:14:42.448Z,0.60
2023-12-23T00:17:10.393Z,0.27
2023-12-23T00:19:38.449Z,0.30
2023-12-23T00:22:06.366Z,0.37
2023-12-23T00:24:34.224Z,0.70
2023-12-23T00:27:02.034Z,0.67
2023-12-23T00:29:30.239Z,1.23
2023-12-23T00:31:59.466Z,0.43
2023-12-23T00:34:27.227Z,0.77
2023-12-23T00:36:55.426Z,0.47
2023-12-23T00:39:23.200Z,0.43
2023-12-23T00:41:51.477Z,0.70
2023-12-23T00:44:19.225Z,0.80
2023-12-23T00:46:47.066Z,0.77
2023-12-23T00:49:17.329Z,0.70
2023-12-23T00:51:45.121Z,0.87
2023-12-23T00:54:12.945Z,1.00
2023-12-23T00:56:40.829Z,1.03
2023-12-23T00:59:08.686Z,0.80
2023-12-23T01:01:36.438Z,0.50
2023-12-23T01:04:04.446Z,0.80
2023-12-23T01:06:33.752Z,0.33
2023-12-23T01:09:01.768Z,0.83
2023-12-23T01:11:29.669Z,0.80
2023-12-23T01:13:56.588Z,0.67
2023-12-23T01:16:24.462Z,0.70
2023-12-23T01:18:52.344Z,0.40
2023-12-23T01:21:21.481Z,0.50
2023-12-23T01:23:50.821Z,0.50
2023-12-23T01:26:18.846Z,0.70
2023-12-23T01:28:46.805Z,0.77
2023-12-23T01:31:14.758Z,0.60
2023-12-23T01:33:42.852Z,0.70
2023-12-23T01:36:10.867Z,0.70
2023-12-23T01:38:38.810Z,0.37
2023-12-23T01:41:08.095Z,0.77
2023-12-23T01:43:36.008Z,0.63
2023-12-23T01:46:05.014Z,0.90
2023-12-23T01:48:38.528Z,1.27
2023-12-23T01:51:06.550Z,1.23
2023-12-23T01:53:35.578Z,0.80
2023-12-23T01:56:03.770Z,1.10
2023-12-23T01:58:35.866Z,0.73
2023-12-23T02:01:04.499Z,0.50
2023-12-23T02:03:33.412Z,0.93
2023-12-23T02:06:01.394Z,1.70
2023-12-23T02:08:31.681Z,0.63
2023-12-23T02:11:06.160Z,0.73
2023-12-23T02:13:40.060Z,0.97
2023-12-23T02:16:08.704Z,0.70
2023-12-23T02:18:37.575Z,0.30
2023-12-23T02:21:07.011Z,0.33
2023-12-23T02:23:34.846Z,0.87
2023-12-23T02:26:06.350Z,0.60
2023-12-23T02:28:35.004Z,0.87
2023-12-23T02:31:03.765Z,0.47
2023-12-23T02:33:31.747Z,0.77
2023-12-23T02:35:59.608Z,1.00
2023-12-23T02:38:28.716Z,0.90
2023-12-23T02:40:56.468Z,0.73
2023-12-23T02:43:24.272Z,0.50
2023-12-23T02:45:52.102Z,0.77
2023-12-23T02:48:20.177Z,1.30
2023-12-23T02:50:48.058Z,0.70
2023-12-23T02:53:15.846Z,1.37
2023-12-23T02:55:44.974Z,0.47
2023-12-23T02:58:12.883Z,1.43
2023-12-23T03:00:40.683Z,0.87
2023-12-23T03:03:08.632Z,0.70
2023-12-23T03:05:36.516Z,1.27
2023-12-23T03:08:04.673Z,1.27
2023-12-23T03:10:32.370Z,0.57
2023-12-23T03:13:01.441Z,0.93
2023-12-23T03:15:29.168Z,0.97
2023-12-23T03:17:56.997Z,1.10
2023-12-23T03:20:27.604Z,0.70
2023-12-23T03:22:55.345Z,0.90
2023-12-23T03:25:23.226Z,0.50
2023-12-23T03:27:50.910Z,0.80
2023-12-23T03:30:20.115Z,0.80
2023-12-23T03:32:48.272Z,0.67
2023-12-23T03:35:16.511Z,0.77
2023-12-23T03:37:45.637Z,0.83
2023-12-23T03:40:13.900Z,1.20
2023-12-23T03:42:41.798Z,0.70
2023-12-23T03:45:10.268Z,1.00
2023-12-23T03:47:42.272Z,1.10
2023-12-23T03:50:12.103Z,1.00
2023-12-23T03:52:40.019Z,1.03
2023-12-23T03:55:08.573Z,0.50
2023-12-23T03:57:36.572Z,0.70
2023-12-23T04:00:05.557Z,0.40
2023-12-23T04:02:33.500Z,0.93
2023-12-23T04:05:02.712Z,0.80
2023-12-23T04:07:30.583Z,1.17
2023-12-23T04:09:58.447Z,0.85
2023-12-23T04:12:26.242Z,1.30
2023-12-23T04:14:53.986Z,1.33
2023-12-23T04:17:22.343Z,0.40
2023-12-23T04:19:51.486Z,1.50
2023-12-23T04:22:20.688Z,0.87
2023-12-23T04:24:48.541Z,0.60
2023-12-23T04:27:16.799Z,0.55
2023-12-23T04:29:44.572Z,0.53
2023-12-23T04:32:12.657Z,0.50
2023-12-23T04:34:40.577Z,0.37
2023-12-23T04:37:08.461Z,0.60
2023-12-23T04:39:37.873Z,0.57
2023-12-23T04:42:06.481Z,1.00
2023-12-23T04:44:34.236Z,1.33
2023-12-23T04:47:02.136Z,0.83
2023-12-23T04:49:29.845Z,0.70
2023-12-23T04:51:57.645Z,0.53
2023-12-23T04:54:27.735Z,0.47
2023-12-23T04:56:56.832Z,0.63
2023-12-23T04:59:24.592Z,0.50
2023-12-23T05:01:52.705Z,1.37
2023-12-23T05:04:20.740Z,0.50
2023-12-23T05:06:48.438Z,0.80
2023-12-23T05:09:16.589Z,0.70
2023-12-23T05:11:44.345Z,0.77
2023-12-23T05:14:13.990Z,0.80
2023-12-23T05:16:41.769Z,0.90
2023-12-23T05:19:09.641Z,1.07
2023-12-23T05:21:37.462Z,0.60
2023-12-23T05:24:05.840Z,0.50
2023-12-23T05:26:33.796Z,0.63
2023-12-23T05:29:01.806Z,0.53
2023-12-23T05:31:30.847Z,0.57
2023-12-23T05:33:59.362Z,0.53
2023-12-23T05:36:27.209Z,0.77
2023-12-23T05:38:54.891Z,0.73
2023-12-23T05:41:22.960Z,0.63
2023-12-23T05:43:51.303Z,0.50
2023-12-23T05:46:19.193Z,0.50
2023-12-23T05:48:48.498Z,1.00
2023-12-23T05:51:16.566Z,1.00
2023-12-23T05:53:44.530Z,0.63
2023-12-23T05:56:12.514Z,0.50
2023-12-23T05:58:40.438Z,0.40
2023-12-23T06:01:08.523Z,0.50
2023-12-23T06:03:36.489Z,0.40
2023-12-23T06:06:06.945Z,0.30
2023-12-23T06:08:35.135Z,0.30
2023-12-23T06:11:05.695Z,0.63
2023-12-23T06:13:34.023Z,0.70
2023-12-23T06:16:06.810Z,0.50
2023-12-23T06:18:35.031Z,0.40
2023-12-23T06:21:03.419Z,0.83
2023-12-23T06:23:33.233Z,0.70
2023-12-23T06:26:01.548Z,0.43
2023-12-23T06:28:29.420Z,0.13
2023-12-23T06:30:57.326Z,0.40
2023-12-23T06:33:25.304Z,0.50
2023-12-23T06:35:53.344Z,0.60
2023-12-23T06:38:21.500Z,0.70
2023-12-23T06:40:50.879Z,0.40
2023-12-23T06:43:44.512Z,0.50
2023-12-23T06:46:06.717Z,0.63
2023-12-23T06:48:35.330Z,0.57
2023-12-23T06:51:04.022Z,0.37
2023-12-23T06:53:31.876Z,0.20
2023-12-23T06:56:01.263Z,0.33
2023-12-23T06:58:30.212Z,0.27
2023-12-23T07:00:58.142Z,0.60
2023-12-23T07:03:26.137Z,0.43
2023-12-23T07:05:53.971Z,0.33
2023-12-23T07:08:22.048Z,0.30
2023-12-23T07:10:50.563Z,0.77
2023-12-23T07:13:20.272Z,0.57
2023-12-23T07:15:47.983Z,0.20
2023-12-23T07:18:15.998Z,0.50
2023-12-23T07:20:44.129Z,0.50
2023-12-23T07:23:12.281Z,0.50
2023-12-23T07:25:39.979Z,0.20
2023-12-23T07:28:07.915Z,0.40
2023-12-23T07:30:41.629Z,0.40
2023-12-23T07:33:09.568Z,0.30
2023-12-23T07:35:37.633Z,0.30
2023-12-23T07:38:06.833Z,0.30
2023-12-23T07:40:36.457Z,0.35
2023-12-23T07:43:04.905Z,0.30
2023-12-23T07:45:32.952Z,0.30
2023-12-23T07:48:02.187Z,0.33
2023-12-23T07:50:30.293Z,0.23
2023-12-23T07:52:58.448Z,0.37
2023-12-23T07:55:28.512Z,0.30
2023-12-23T07:57:56.482Z,0.30
2023-12-23T08:00:24.362Z,0.23
2023-12-23T08:02:52.306Z,0.47
2023-12-23T08:05:21.826Z,0.50
2023-12-23T08:07:50.202Z,0.40
2023-12-23T08:10:19.185Z,0.53
2023-12-23T08:12:46.994Z,0.23
2023-12-23T08:15:14.805Z,0.20
2023-12-23T08:17:42.878Z,0.37
2023-12-23T08:20:12.081Z,0.53
2023-12-23T08:22:42.125Z,0.40
2023-12-23T08:25:11.322Z,0.40
2023-12-23T08:27:39.614Z,0.40
2023-12-23T08:30:08.970Z,0.27
2023-12-23T08:32:37.233Z,0.30
2023-12-23T08:35:05.509Z,0.13
2023-12-23T08:37:33.478Z,0.30
2023-12-23T08:40:02.827Z,0.20
2023-12-23T08:42:30.895Z,0.20
2023-12-23T08:44:58.909Z,0.70
2023-12-23T08:47:26.893Z,0.20
2023-12-23T08:49:54.988Z,0.60
2023-12-23T08:52:22.819Z,0.37
2023-12-23T08:54:50.956Z,0.63
2023-12-23T08:57:20.108Z,0.40
2023-12-23T08:59:47.905Z,0.40
2023-12-23T09:02:15.690Z,0.60
2023-12-23T09:04:43.694Z,0.50
2023-12-23T09:07:13.909Z,0.40
2023-12-23T09:09:42.470Z,0.60
2023-12-23T09:12:10.953Z,0.43
2023-12-23T09:14:40.555Z,0.88
2023-12-23T09:17:08.681Z,0.33
2023-12-23T09:19:36.515Z,0.40
2023-12-23T09:22:05.456Z,0.50
2023-12-23T09:24:33.460Z,0.37
2023-12-23T09:27:02.729Z,0.50
2023-12-23T09:29:31.144Z,0.33
2023-12-23T09:32:00.413Z,0.40
2023-12-23T09:34:28.729Z,0.67
2023-12-23T09:36:56.598Z,0.30
2023-12-23T09:39:24.511Z,0.30
2023-12-23T09:41:52.617Z,0.40
2023-12-23T09:44:21.245Z,0.43
2023-12-23T09:46:50.573Z,0.40
2023-12-23T09:49:20.459Z,0.33
2023-12-23T09:51:49.716Z,0.40
2023-12-23T09:54:22.202Z,0.40
2023-12-23T09:56:52.132Z,0.90
2023-12-23T09:59:20.168Z,1.03
2023-12-23T10:01:48.248Z,2.23
2023-12-23T10:04:16.701Z,0.97
2023-12-23T10:06:46.015Z,1.00
2023-12-23T10:09:13.941Z,0.67
2023-12-23T10:11:42.395Z,0.40
2023-12-23T10:14:10.300Z,0.60
2023-12-23T10:16:42.132Z,0.23
2023-12-23T10:19:11.073Z,1.27
2023-12-23T10:21:41.457Z,0.77
2023-12-23T10:24:10.843Z,0.57
2023-12-23T10:26:40.581Z,0.93
2023-12-23T10:29:11.224Z,0.80
2023-12-23T10:31:42.622Z,0.60
2023-12-23T10:34:18.419Z,0.70
2023-12-23T10:36:46.764Z,0.47
2023-12-23T10:39:23.820Z,0.73
2023-12-23T10:41:58.303Z,1.17
2023-12-23T10:44:28.013Z,0.52
2023-12-23T10:46:57.617Z,0.73
2023-12-23T10:49:26.536Z,0.70
2023-12-23T10:51:55.909Z,0.43
2023-12-23T10:54:28.675Z,0.70
2023-12-23T10:56:58.658Z,0.43
2023-12-23T10:59:26.803Z,0.53
2023-12-23T11:01:57.596Z,0.30
2023-12-23T11:04:28.067Z,0.53
2023-12-23T11:07:00.889Z,0.70
2023-12-23T11:09:32.627Z,0.50
2023-12-23T11:12:01.442Z,0.60
2023-12-23T11:14:30.833Z,0.63
2023-12-23T11:16:59.900Z,0.60
2023-12-23T11:19:28.101Z,0.50
2023-12-23T11:22:23.572Z,0.40
2023-12-23T11:24:53.357Z,0.77
2023-12-23T11:27:32.812Z,0.47
2023-12-23T11:30:02.667Z,0.83
2023-12-23T11:32:36.297Z,0.40
2023-12-23T11:35:05.864Z,0.70
2023-12-23T11:37:54.029Z,0.60
2023-12-23T11:40:24.194Z,0.80
2023-12-23T11:42:52.627Z,0.90
2023-12-23T11:45:21.083Z,0.97
2023-12-23T11:47:50.230Z,0.50
2023-12-23T11:50:19.582Z,0.90
2023-12-23T11:52:47.635Z,0.73
2023-12-23T11:55:17.242Z,0.83
2023-12-23T11:57:46.819Z,0.73
2023-12-23T12:00:16.045Z,0.80
2023-12-23T12:02:43.774Z,1.07
2023-12-23T12:05:12.328Z,0.73
2023-12-23T12:07:40.344Z,0.80
2023-12-23T12:10:09.388Z,0.60
2023-12-23T12:12:37.167Z,0.67
2023-12-23T12:15:07.461Z,0.70
2023-12-23T12:17:35.689Z,0.70
2023-12-23T12:20:04.115Z,0.90
2023-12-23T12:22:31.964Z,0.80
2023-12-23T12:24:59.720Z,0.60
2023-12-23T12:27:27.599Z,0.70
2023-12-23T12:29:55.667Z,1.43
2023-12-23T12:32:25.275Z,1.23
2023-12-23T12:35:02.303Z,0.87
2023-12-23T12:37:30.366Z,1.00
2023-12-23T12:39:59.855Z,1.13
2023-12-23T12:42:28.960Z,1.27
2023-12-23T12:45:01.690Z,1.13
2023-12-23T12:47:31.605Z,1.63
2023-12-23T12:50:06.531Z,1.47
2023-12-23T12:52:36.574Z,1.50
2023-12-23T12:55:06.671Z,1.23
2023-12-23T12:57:34.519Z,1.40
2023-12-23T13:00:02.297Z,1.07
2023-12-23T13:02:32.181Z,0.80
2023-12-23T13:05:04.745Z,1.07
2023-12-23T13:07:32.552Z,1.00
2023-12-23T13:10:00.412Z,0.93
2023-12-23T13:12:28.370Z,1.00
2023-12-23T13:14:58.659Z,1.00
2023-12-23T13:17:26.514Z,0.90
2023-12-23T13:19:55.785Z,1.13
2023-12-23T13:22:24.955Z,1.10
2023-12-23T13:24:52.656Z,1.00
2023-12-23T13:27:21.239Z,1.23
2023-12-23T13:29:49.186Z,1.20
2023-12-23T13:32:17.406Z,1.10
2023-12-23T13:34:46.832Z,0.80
2023-12-23T13:37:16.919Z,0.68
2023-12-23T13:39:44.635Z,1.17
2023-12-23T13:42:15.390Z,1.08
2023-12-23T13:44:43.091Z,1.20
2023-12-23T13:47:10.779Z,0.85
2023-12-23T13:49:38.646Z,0.82
2023-12-23T13:52:06.660Z,0.93
2023-12-23T13:54:36.160Z,0.87
2023-12-23T13:57:03.904Z,1.40
2023-12-23T13:59:32.536Z,1.30
2023-12-23T14:02:00.367Z,1.40
2023-12-23T14:04:28.213Z,1.00
2023-12-23T14:06:56.000Z,0.77
2023-12-23T14:09:23.709Z,1.15
2023-12-23T14:11:53.124Z,0.77
2023-12-23T14:14:21.249Z,0.68
2023-12-23T14:16:49.161Z,1.00
2023-12-23T14:19:17.014Z,0.70
2023-12-23T14:21:45.213Z,1.05
2023-12-23T14:24:12.916Z,0.60
2023-12-23T14:26:40.901Z,1.48
2023-12-23T14:29:11.257Z,1.10
2023-12-23T14:31:39.182Z,2.03
2023-12-23T14:34:07.373Z,2.65
2023-12-23T14:36:35.523Z,1.67
2023-12-23T14:39:04.464Z,1.25
2023-12-23T14:41:32.863Z,1.08
2023-12-23T14:44:00.740Z,0.98
2023-12-23T14:46:32.268Z,1.20
2023-12-23T14:48:59.962Z,1.17
2023-12-23T14:51:28.641Z,0.90
2023-12-23T14:53:56.461Z,0.73
2023-12-23T14:56:24.141Z,0.60
2023-12-23T14:58:52.683Z,0.90
2023-12-23T15:01:20.887Z,1.55
2023-12-23T15:03:52.721Z,0.93
2023-12-23T15:06:21.830Z,0.98
2023-12-23T15:08:49.658Z,1.05
2023-12-23T15:11:20.185Z,0.82
2023-12-23T15:13:50.412Z,1.23
2023-12-23T15:16:18.329Z,1.08
2023-12-23T15:18:46.423Z,1.35
2023-12-23T15:21:16.385Z,0.70
2023-12-23T15:23:44.169Z,0.90
2023-12-23T15:26:14.415Z,1.15
2023-12-23T15:28:42.801Z,1.00
2023-12-23T15:31:10.800Z,1.00
2023-12-23T15:33:38.895Z,1.77
2023-12-23T15:36:07.984Z,0.88
2023-12-23T15:38:37.101Z,1.08
2023-12-23T15:41:05.217Z,1.00
2023-12-23T15:43:33.174Z,0.90
2023-12-23T15:46:01.242Z,1.20
2023-12-23T15:48:29.516Z,1.15
2023-12-23T15:50:57.469Z,0.95
2023-12-23T15:53:25.229Z,1.20
2023-12-23T15:55:54.456Z,1.27
2023-12-23T15:58:22.230Z,0.93
2023-12-23T16:00:50.359Z,1.13
2023-12-23T16:03:18.364Z,1.27
2023-12-23T16:05:46.510Z,1.95
2023-12-23T16:08:15.079Z,1.70
2023-12-23T16:10:42.914Z,1.10
2023-12-23T16:13:14.446Z,1.25
2023-12-23T16:15:42.126Z,1.60
2023-12-23T16:18:10.403Z,1.98
2023-12-23T16:20:38.517Z,1.27
2023-12-23T16:23:06.274Z,0.95
2023-12-23T16:25:34.225Z,1.10
2023-12-23T16:28:01.940Z,0.90
2023-12-23T16:30:31.028Z,1.30
2023-12-23T16:32:58.869Z,1.30
2023-12-23T16:35:26.704Z,1.52
2023-12-23T16:37:54.662Z,0.95
2023-12-23T16:40:22.442Z,1.23
2023-12-23T16:42:51.008Z,1.63
2023-12-23T16:45:19.963Z,1.65
2023-12-23T16:47:49.481Z,1.83
2023-12-23T16:50:17.868Z,1.60
2023-12-23T16:52:45.914Z,1.75
2023-12-23T16:55:13.864Z,1.73
2023-12-23T16:57:41.838Z,1.80
2023-12-23T17:00:10.497Z,1.73
2023-12-23T17:02:38.845Z,1.85
2023-12-23T17:05:08.875Z,2.05
2023-12-23T17:07:36.937Z,1.98
2023-12-23T17:10:05.396Z,1.98
2023-12-23T17:12:33.900Z,1.65
2023-12-23T17:15:01.649Z,2.25
2023-12-23T17:17:29.414Z,2.28
2023-12-23T17:19:57.353Z,1.95
2023-12-23T17:22:27.869Z,2.90
2023-12-23T17:24:56.184Z,8.52
2023-12-23T17:27:24.039Z,2.23
2023-12-23T17:29:52.769Z,2.17
2023-12-23T17:32:21.830Z,2.20
2023-12-23T17:34:49.873Z,2.17
2023-12-23T17:37:17.743Z,2.60
2023-12-23T17:39:48.094Z,1.83
2023-12-23T17:42:16.113Z,2.15
2023-12-23T17:44:44.267Z,3.25
2023-12-23T17:47:12.192Z,2.33
2023-12-23T17:49:40.086Z,1.80
2023-12-23T17:52:08.338Z,1.50
2023-12-23T17:54:36.415Z,2.05
2023-12-23T17:57:05.836Z,1.63
2023-12-23T17:59:35.876Z,1.67
2023-12-23T18:02:04.439Z,1.73
2023-12-23T18:04:35.729Z,1.38
2023-12-23T18:07:03.479Z,1.73
2023-12-23T18:09:31.730Z,1.50
2023-12-23T18:11:59.815Z,1.42
2023-12-23T18:14:29.698Z,1.38
2023-12-23T18:16:58.109Z,1.52
2023-12-23T18:19:25.929Z,1.52
2023-12-23T18:21:55.836Z,1.90
2023-12-23T18:24:23.722Z,1.67
2023-12-23T18:26:52.912Z,1.70
2023-12-23T18:29:21.051Z,2.38
2023-12-23T18:31:51.988Z,1.67
2023-12-23T18:34:21.043Z,2.60
2023-12-23T18:36:48.914Z,2.47
2023-12-23T18:39:17.054Z,2.25
2023-12-23T18:41:45.030Z,2.28
2023-12-23T18:44:13.506Z,1.95
2023-12-23T18:46:41.342Z,2.65
2023-12-23T18:49:10.559Z,1.90
2023-12-23T18:51:38.286Z,1.30
2023-12-23T18:54:06.285Z,2.25
2023-12-23T18:56:34.428Z,1.67
2023-12-23T18:59:05.346Z,2.30
2023-12-23T19:01:33.064Z,2.83
2023-12-23T19:04:01.819Z,1.20
2023-12-23T19:06:33.952Z,2.30
2023-12-23T19:09:01.954Z,2.08
2023-12-23T19:11:29.688Z,2.00
2023-12-23T19:13:57.484Z,2.30
2023-12-23T19:16:26.280Z,4.07
2023-12-23T19:18:54.598Z,2.25
2023-12-23T19:21:31.745Z,2.75
2023-12-23T19:23:59.557Z,4.32
2023-12-23T19:26:27.973Z,1.98
2023-12-23T19:28:56.112Z,3.03
2023-12-23T19:31:24.360Z,2.75
2023-12-23T19:33:53.060Z,2.65
2023-12-23T19:36:21.614Z,1.90
2023-12-23T19:38:50.906Z,2.55
2023-12-23T19:41:19.006Z,2.50
2023-12-23T19:43:49.703Z,2.08
2023-12-23T19:46:17.941Z,1.23
2023-12-23T19:48:45.807Z,1.80
2023-12-23T19:51:15.268Z,1.50
2023-12-23T19:53:43.296Z,0.85
2023-12-23T19:56:13.454Z,1.00
2023-12-23T19:58:41.564Z,0.82
2023-12-23T20:01:09.806Z,1.33
2023-12-23T20:03:40.057Z,0.93
2023-12-23T20:06:09.884Z,1.00
2023-12-23T20:08:38.050Z,2.20
2023-12-23T20:11:06.550Z,2.28
2023-12-23T20:13:36.319Z,1.85
2023-12-23T20:16:05.792Z,2.90
2023-12-23T20:18:34.203Z,3.47
2023-12-23T20:21:03.434Z,1.83
2023-12-23T20:23:31.604Z,1.42
2023-12-23T20:25:59.509Z,1.10
2023-12-23T20:28:27.277Z,0.85
2023-12-23T20:30:56.805Z,0.85
2023-12-23T20:33:24.809Z,0.73
2023-12-23T20:35:52.812Z,0.70
2023-12-23T20:38:23.636Z,0.60
2023-12-23T20:40:53.921Z,1.05
2023-12-23T20:43:24.213Z,1.05
2023-12-23T20:45:51.942Z,0.95
2023-12-23T20:48:21.485Z,0.95
2023-12-23T20:50:50.192Z,1.10
2023-12-23T20:53:18.547Z,1.17
2023-12-23T20:55:47.332Z,0.90
2023-12-23T20:58:15.041Z,1.00
2023-12-23T21:00:44.828Z,0.80
2023-12-23T21:03:13.042Z,1.77
2023-12-23T21:05:47.520Z,1.73
2023-12-23T21:08:18.034Z,1.42
2023-12-23T21:10:46.598Z,0.80
2023-12-23T21:13:14.317Z,0.80
2023-12-23T21:15:44.344Z,0.75
2023-12-23T21:18:12.374Z,1.13
2023-12-23T21:20:40.128Z,0.68
2023-12-23T21:23:09.544Z,0.85
2023-12-23T21:25:38.766Z,0.88
2023-12-23T21:28:08.191Z,1.27
2023-12-23T21:30:39.227Z,0.82
2023-12-23T21:33:07.187Z,0.80
2023-12-23T21:35:35.201Z,0.90
2023-12-23T21:38:04.511Z,0.57
2023-12-23T21:40:33.944Z,1.10
2023-12-23T21:43:02.053Z,1.00
2023-12-23T21:45:32.589Z,1.13
2023-12-23T21:48:00.472Z,0.98
2023-12-23T21:50:28.559Z,1.13
2023-12-23T21:52:56.339Z,1.60
2023-12-23T21:55:24.232Z,0.90
2023-12-23T21:57:54.105Z,1.00
2023-12-23T22:00:22.342Z,1.10
2023-12-23T22:02:51.138Z,1.15
2023-12-23T22:05:19.558Z,0.98
2023-12-23T22:07:47.609Z,1.23
2023-12-23T22:10:16.633Z,1.33
2023-12-23T22:12:44.701Z,1.15
2023-12-23T22:15:14.393Z,1.13
2023-12-23T22:17:42.247Z,1.40
2023-12-23T22:20:10.967Z,1.10
2023-12-23T22:22:38.704Z,1.45
2023-12-23T22:25:07.822Z,1.40
2023-12-23T22:27:35.581Z,1.98
2023-12-23T22:30:04.878Z,1.60
2023-12-23T22:32:36.027Z,1.30
2023-12-23T22:35:03.985Z,1.60
2023-12-23T22:37:31.796Z,1.20
2023-12-23T22:40:01.330Z,1.27
2023-12-23T22:42:31.290Z,1.52
2023-12-23T22:44:58.959Z,2.10
2023-12-23T22:47:28.077Z,1.63
2023-12-23T22:49:57.775Z,1.40
2023-12-23T22:52:25.630Z,1.40
2023-12-23T22:54:53.788Z,2.03
2023-12-23T22:57:21.561Z,1.52
2023-12-23T22:59:52.548Z,1.38
2023-12-23T23:02:22.131Z,1.25
2023-12-23T23:04:51.466Z,1.40
2023-12-23T23:07:21.171Z,1.27
2023-12-23T23:09:53.564Z,1.50
2023-12-23T23:12:21.601Z,1.50
2023-12-23T23:14:49.545Z,1.70
2023-12-23T23:17:17.214Z,1.20
2023-12-23T23:19:45.053Z,1.17
2023-12-23T23:22:13.537Z,1.33
2023-12-23T23:24:42.632Z,1.38
2023-12-23T23:27:10.664Z,1.23
2023-12-23T23:29:42.381Z,1.33
2023-12-23T23:32:10.351Z,1.15
2023-12-23T23:34:38.164Z,0.50
2023-12-23T23:37:08.742Z,0.98
2023-12-23T23:39:37.426Z,0.90
2023-12-23T23:42:07.268Z,1.08
2023-12-23T23:44:35.400Z,1.00
2023-12-23T23:47:03.063Z,0.68
2023-12-23T23:49:31.485Z,0.68
2023-12-23T23:51:59.425Z,0.93
2023-12-23T23:54:27.183Z,1.27
2023-12-23T23:56:58.424Z,1.67
2023-12-23T23:59:27.534Z,1.45
